Eagle San Antonio — 9V9330 — position and weather

sailwx.info

Track history (hours):
 
Tides and Currents Weather Stations Pressure Air Temp Water Temp Dewpoint Dewpoint Depression Visibility Wind Speed Wind Dir Waves Ship Positions

Eagle San Antonio

Last reported at 2014-Nov-07 20:31 UTC. Time now 2014-Nov-22 21:14 UTC.
Position N 35°59' W 005°33'.
Warning: this ship's position is 15 days out of date.

Length 274 m; draft 9.3 m.

Type: Tanker. MMSI: 566453000.

Date/timePositionNaut miles runAvg speedWind from/ knotsBaromVisibWave heightAir tempDewpointWater temp
2014-Nov-07 20:31N 35°59' W 005°33'10 9.9
2014-Nov-07 19:33N 36°02' W 005°22'1211.4
2014-Nov-07 18:31N 36°03' W 005°07'24812.2
2014-Nov-06 22:13N 37°22' W 000°14'912.8
2014-Nov-06 21:33N 37°30' W 000°09'15613.0
2014-Nov-06 09:31N 39°43' E 001°35'1212.9
2014-Nov-06 08:33N 39°51' E 001°47'1313.0
2014-Nov-06 07:33N 39°59' E 002°00'1313.0
2014-Nov-06 06:33N 40°08' E 002°13'1313.0
2014-Nov-06 05:33N 40°17' E 002°26'1313.2
2014-Nov-06 04:33N 40°25' E 002°39'1313.4
2014-Nov-06 03:33N 40°34' E 002°52'1313.0
2014-Nov-06 02:33N 40°43' E 003°05'1313.1
2014-Nov-06 01:33N 40°51' E 003°18'5213.0
2014-Nov-05 21:33N 41°26' E 004°10'1514.8
2014-Nov-05 20:32N 41°35' E 004°25'1511.4
2014-Nov-05 19:16N 41°44' E 004°40'1012.7
2014-Nov-05 18:29N 41°52' E 004°49'1413.2
2014-Nov-05 17:24N 42°05' E 004°56'1112.7
2014-Nov-05 16:30N 42°17' E 004°57'1612.8
2014-Nov-05 15:15N 42°33' E 004°58'1513.4
2014-Nov-05 14:09N 42°47' E 004°59'912.8
2014-Nov-05 13:28N 42°56' E 004°60'1213.1
2014-Nov-05 12:33N 43°08' E 005°01'1414.2
2014-Nov-05 11:33N 43°22' E 004°58'4 4.0
2014-Nov-05 10:33N 43°24' E 004°53'0 0.0
2014-Nov-05 09:33N 43°24' E 004°53'0 0.0
2014-Nov-05 08:33N 43°24' E 004°53'0 0.0
2014-Nov-05 07:33N 43°24' E 004°53'0 0.0
2014-Nov-05 06:33N 43°24' E 004°53'0 0.0
2014-Nov-05 05:33N 43°24' E 004°53'0 0.0
2014-Nov-05 04:33N 43°24' E 004°53'0 0.0
2014-Nov-05 03:33N 43°24' E 004°53'0 0.0
2014-Nov-05 02:33N 43°24' E 004°53'0 0.0
2014-Nov-05 01:33N 43°24' E 004°53'0 0.0
2014-Nov-05 00:33N 43°24' E 004°53'0 0.0
2014-Nov-04 23:30N 43°24' E 004°53'0 0.0
2014-Nov-04 22:33N 43°24' E 004°53'0 0.0
2014-Nov-04 21:33N 43°24' E 004°53'0 0.0
2014-Nov-04 20:30N 43°24' E 004°53'0 0.0
2014-Nov-04 19:33N 43°24' E 004°53'0 0.0
2014-Nov-04 18:33N 43°24' E 004°53'0 0.0
2014-Nov-04 17:33N 43°24' E 004°53'0 0.0
2014-Nov-04 16:33N 43°24' E 004°53'0 0.0
2014-Nov-04 15:33N 43°24' E 004°53'0 0.0
2014-Nov-04 14:33N 43°24' E 004°53'0 0.0
2014-Nov-04 13:30N 43°24' E 004°53'0 0.0
2014-Nov-04 12:33N 43°24' E 004°53'0 0.0
2014-Nov-04 11:30N 43°24' E 004°53'0 0.0
2014-Nov-04 10:33N 43°24' E 004°53'0 0.0
2014-Nov-04 09:33N 43°24' E 004°53'0 0.0
2014-Nov-04 08:33N 43°24' E 004°53'0 0.0
2014-Nov-04 07:27N 43°24' E 004°53'0 0.0
2014-Nov-04 06:30N 43°24' E 004°53'0 0.0
2014-Nov-04 05:33N 43°24' E 004°53'0 0.0
2014-Nov-04 04:33N 43°24' E 004°53'0 0.0
2014-Nov-04 03:33N 43°24' E 004°53'0 0.0
2014-Nov-04 02:30N 43°24' E 004°53'0 0.0
2014-Nov-04 01:33N 43°24' E 004°53'0 0.0
2014-Nov-04 00:33N 43°24' E 004°53'0 0.0
2014-Nov-03 23:33N 43°24' E 004°53'0 0.0
2014-Nov-03 22:30N 43°24' E 004°53'0 0.0
2014-Nov-03 21:33N 43°24' E 004°53'0 0.0
2014-Nov-03 20:30N 43°24' E 004°53'0 0.0
2014-Nov-03 19:27N 43°24' E 004°53'0 0.0
2014-Nov-03 19:06N 43°24' E 004°53'0 0.0
2014-Nov-03 18:30N 43°24' E 004°53'0 0.0
2014-Nov-03 18:12N 43°24' E 004°53'0 0.4
2014-Nov-03 17:50N 43°24' E 004°53'1 3.2
2014-Nov-03 17:33N 43°24' E 004°54'5 5.2
2014-Nov-03 16:34N 43°20' E 004°59'14 6.6
2014-Nov-03 14:28N 43°06' E 005°03'7 7.6
2014-Nov-03 13:32N 43°00' E 004°58'2 2.2
2014-Nov-03 12:33N 43°00' E 005°01'1614.8
2014-Nov-03 11:28N 42°44' E 004°59'6314.9
2014-Nov-03 07:15N 41°41' E 004°52'14513.6
2014-Nov-02 20:33N 39°21' E 004°01'1514.5
2014-Nov-02 19:33N 39°13' E 003°45'1514.7
2014-Nov-02 18:33N 39°05' E 003°30'1514.7
2014-Nov-02 17:33N 38°57' E 003°14'1515.0
2014-Nov-02 16:33N 38°49' E 002°58'1514.7
2014-Nov-02 15:33N 38°41' E 002°42'1414.5
2014-Nov-02 14:33N 38°33' E 002°26'39514.5
2014-Nov-01 11:23N 35°60' W 005°11'1214.3
2014-Nov-01 10:33N 35°58' W 005°25'8013.4
2014-Nov-01 04:33N 35°23' W 006°54'4514.8
2014-Nov-01 01:30N 34°52' W 007°35'1814.8
2014-Nov-01 00:18N 34°40' W 007°51'1714.9
2014-Oct-31 23:09N 34°29' W 008°07'6714.6
2014-Oct-31 18:33N 33°44' W 009°07'3014.8
2014-Oct-31 16:33N 33°24' W 009°33'  
Track history (hours):
 
Tides and Currents Weather Stations Pressure Air Temp Water Temp Dewpoint Dewpoint Depression Visibility Wind Speed Wind Dir Waves Ship Positions

Eagle San Antonio

Last reported at 2014-Nov-07 20:31 UTC. Time now 2014-Nov-22 21:14 UTC.
Position N 35°59' W 005°33'.
Warning: this ship's position is 15 days out of date.

Length 274 m; draft 9.3 m.

Type: Tanker. MMSI: 566453000.

Date/timePositionNaut miles runAvg speedWind from/ knotsBaromVisibWave heightAir tempDewpointWater temp
2014-Nov-07 20:31N 35°59' W 005°33'10 9.9
2014-Nov-07 19:33N 36°02' W 005°22'1211.4
2014-Nov-07 18:31N 36°03' W 005°07'24812.2
2014-Nov-06 22:13N 37°22' W 000°14'912.8
2014-Nov-06 21:33N 37°30' W 000°09'15613.0
2014-Nov-06 09:31N 39°43' E 001°35'1212.9
2014-Nov-06 08:33N 39°51' E 001°47'1313.0
2014-Nov-06 07:33N 39°59' E 002°00'1313.0
2014-Nov-06 06:33N 40°08' E 002°13'1313.0
2014-Nov-06 05:33N 40°17' E 002°26'1313.2
2014-Nov-06 04:33N 40°25' E 002°39'1313.4
2014-Nov-06 03:33N 40°34' E 002°52'1313.0
2014-Nov-06 02:33N 40°43' E 003°05'1313.1
2014-Nov-06 01:33N 40°51' E 003°18'5213.0
2014-Nov-05 21:33N 41°26' E 004°10'1514.8
2014-Nov-05 20:32N 41°35' E 004°25'1511.4
2014-Nov-05 19:16N 41°44' E 004°40'1012.7
2014-Nov-05 18:29N 41°52' E 004°49'1413.2
2014-Nov-05 17:24N 42°05' E 004°56'1112.7
2014-Nov-05 16:30N 42°17' E 004°57'1612.8
2014-Nov-05 15:15N 42°33' E 004°58'1513.4
2014-Nov-05 14:09N 42°47' E 004°59'912.8
2014-Nov-05 13:28N 42°56' E 004°60'1213.1
2014-Nov-05 12:33N 43°08' E 005°01'1414.2
2014-Nov-05 11:33N 43°22' E 004°58'4 4.0
2014-Nov-05 10:33N 43°24' E 004°53'0 0.0
2014-Nov-05 09:33N 43°24' E 004°53'0 0.0
2014-Nov-05 08:33N 43°24' E 004°53'0 0.0
2014-Nov-05 07:33N 43°24' E 004°53'0 0.0
2014-Nov-05 06:33N 43°24' E 004°53'0 0.0
2014-Nov-05 05:33N 43°24' E 004°53'0 0.0
2014-Nov-05 04:33N 43°24' E 004°53'0 0.0
2014-Nov-05 03:33N 43°24' E 004°53'0 0.0
2014-Nov-05 02:33N 43°24' E 004°53'0 0.0
2014-Nov-05 01:33N 43°24' E 004°53'0 0.0
2014-Nov-05 00:33N 43°24' E 004°53'0 0.0
2014-Nov-04 23:30N 43°24' E 004°53'0 0.0
2014-Nov-04 22:33N 43°24' E 004°53'0 0.0
2014-Nov-04 21:33N 43°24' E 004°53'0 0.0
2014-Nov-04 20:30N 43°24' E 004°53'0 0.0
2014-Nov-04 19:33N 43°24' E 004°53'0 0.0
2014-Nov-04 18:33N 43°24' E 004°53'0 0.0
2014-Nov-04 17:33N 43°24' E 004°53'0 0.0
2014-Nov-04 16:33N 43°24' E 004°53'0 0.0
2014-Nov-04 15:33N 43°24' E 004°53'0 0.0
2014-Nov-04 14:33N 43°24' E 004°53'0 0.0
2014-Nov-04 13:30N 43°24' E 004°53'0 0.0
2014-Nov-04 12:33N 43°24' E 004°53'0 0.0
2014-Nov-04 11:30N 43°24' E 004°53'0 0.0
2014-Nov-04 10:33N 43°24' E 004°53'0 0.0
2014-Nov-04 09:33N 43°24' E 004°53'0 0.0
2014-Nov-04 08:33N 43°24' E 004°53'0 0.0
2014-Nov-04 07:27N 43°24' E 004°53'0 0.0
2014-Nov-04 06:30N 43°24' E 004°53'0 0.0
2014-Nov-04 05:33N 43°24' E 004°53'0 0.0
2014-Nov-04 04:33N 43°24' E 004°53'0 0.0
2014-Nov-04 03:33N 43°24' E 004°53'0 0.0
2014-Nov-04 02:30N 43°24' E 004°53'0 0.0
2014-Nov-04 01:33N 43°24' E 004°53'0 0.0
2014-Nov-04 00:33N 43°24' E 004°53'0 0.0
2014-Nov-03 23:33N 43°24' E 004°53'0 0.0
2014-Nov-03 22:30N 43°24' E 004°53'0 0.0
2014-Nov-03 21:33N 43°24' E 004°53'0 0.0
2014-Nov-03 20:30N 43°24' E 004°53'0 0.0
2014-Nov-03 19:27N 43°24' E 004°53'0 0.0
2014-Nov-03 19:06N 43°24' E 004°53'0 0.0
2014-Nov-03 18:30N 43°24' E 004°53'0 0.0
2014-Nov-03 18:12N 43°24' E 004°53'0 0.4
2014-Nov-03 17:50N 43°24' E 004°53'1 3.2
2014-Nov-03 17:33N 43°24' E 004°54'5 5.2
2014-Nov-03 16:34N 43°20' E 004°59'14 6.6
2014-Nov-03 14:28N 43°06' E 005°03'7 7.6
2014-Nov-03 13:32N 43°00' E 004°58'2 2.2
2014-Nov-03 12:33N 43°00' E 005°01'1614.8
2014-Nov-03 11:28N 42°44' E 004°59'6314.9
2014-Nov-03 07:15N 41°41' E 004°52'14513.6
2014-Nov-02 20:33N 39°21' E 004°01'1514.5
2014-Nov-02 19:33N 39°13' E 003°45'1514.7
2014-Nov-02 18:33N 39°05' E 003°30'1514.7
2014-Nov-02 17:33N 38°57' E 003°14'1515.0
2014-Nov-02 16:33N 38°49' E 002°58'1514.7
2014-Nov-02 15:33N 38°41' E 002°42'1414.5
2014-Nov-02 14:33N 38°33' E 002°26'39514.5
2014-Nov-01 11:23N 35°60' W 005°11'1214.3
2014-Nov-01 10:33N 35°58' W 005°25'8013.4
2014-Nov-01 04:33N 35°23' W 006°54'4514.8
2014-Nov-01 01:30N 34°52' W 007°35'1814.8
2014-Nov-01 00:18N 34°40' W 007°51'1714.9
2014-Oct-31 23:09N 34°29' W 008°07'6714.6
2014-Oct-31 18:33N 33°44' W 009°07'3014.8
2014-Oct-31 16:33N 33°24' W 009°33'  

Dump ship's entire track history